createdAt,value
2022-10-17T00:00:48.756Z,5.72
2022-10-17T00:03:40.553Z,5.32
2022-10-17T00:06:30.835Z,5.70
2022-10-17T00:09:20.812Z,10.05
2022-10-17T00:12:10.890Z,5.55
2022-10-17T00:15:03.986Z,5.88
2022-10-17T00:17:54.103Z,6.47
2022-10-17T00:20:44.036Z,9.90
2022-10-17T00:23:33.998Z,16.13
2022-10-17T00:26:24.130Z,14.05
2022-10-17T00:29:14.146Z,14.20
2022-10-17T00:32:04.189Z,11.20
2022-10-17T00:34:54.397Z,12.30
2022-10-17T00:37:44.266Z,12.77
2022-10-17T00:40:34.825Z,12.50
2022-10-17T00:43:24.824Z,12.02
2022-10-17T00:46:15.024Z,12.98
2022-10-17T00:49:11.210Z,13.10
2022-10-17T00:52:06.087Z,11.52
2022-10-17T00:55:13.759Z,11.65
2022-10-17T00:58:06.510Z,12.05
2022-10-17T01:00:56.566Z,11.30
2022-10-17T01:03:46.548Z,10.98
2022-10-17T01:06:36.742Z,10.38
2022-10-17T01:09:27.251Z,10.82
2022-10-17T01:12:25.577Z,10.38
2022-10-17T01:15:26.112Z,10.10
2022-10-17T01:18:40.418Z,10.35
2022-10-17T01:22:00.543Z,9.43
2022-10-17T01:25:17.968Z,9.13
2022-10-17T01:28:11.052Z,9.57
2022-10-17T01:31:09.139Z,9.50
2022-10-17T01:34:29.387Z,9.00
2022-10-17T01:37:23.558Z,8.93
2022-10-17T01:40:26.884Z,8.40
2022-10-17T01:43:32.450Z,8.93
2022-10-17T01:46:28.965Z,8.23
2022-10-17T01:49:24.240Z,7.95
2022-10-17T01:52:24.743Z,8.00
2022-10-17T01:55:49.899Z,7.53
2022-10-17T01:58:56.975Z,7.57
2022-10-17T02:01:50.687Z,8.07
2022-10-17T02:04:41.960Z,7.35
2022-10-17T02:07:32.142Z,7.88
2022-10-17T02:10:36.406Z,6.88
2022-10-17T02:13:57.743Z,7.18
2022-10-17T02:17:06.030Z,7.32
2022-10-17T02:20:02.580Z,7.00
2022-10-17T02:23:09.403Z,6.47
2022-10-17T02:26:09.987Z,6.57
2022-10-17T02:29:09.816Z,6.45
2022-10-17T02:32:11.212Z,6.25
2022-10-17T02:35:04.697Z,5.82
2022-10-17T02:37:56.038Z,5.75
2022-10-17T02:40:49.616Z,6.13
2022-10-17T02:43:40.436Z,6.30
2022-10-17T02:46:32.584Z,6.85
2022-10-17T02:49:28.239Z,5.55
2022-10-17T02:52:52.086Z,6.63
2022-10-17T02:55:56.496Z,6.28
2022-10-17T02:58:51.010Z,6.32
2022-10-17T03:01:42.112Z,6.72
2022-10-17T03:04:33.422Z,5.45
2022-10-17T03:07:23.584Z,5.78
2022-10-17T03:10:13.600Z,5.70
2022-10-17T03:13:03.845Z,5.60
2022-10-17T03:15:57.164Z,5.25
2022-10-17T03:18:50.020Z,5.70
2022-10-17T03:21:40.876Z,4.90
2022-10-17T03:24:30.885Z,5.15
2022-10-17T03:27:21.788Z,5.55
2022-10-17T03:30:12.817Z,5.30
2022-10-17T03:33:03.314Z,5.22
2022-10-17T03:35:53.834Z,5.53
2022-10-17T03:38:45.767Z,7.85
2022-10-17T03:41:35.936Z,6.03
2022-10-17T03:44:25.776Z,4.35
2022-10-17T03:47:16.183Z,4.88
2022-10-17T03:50:07.547Z,4.35
2022-10-17T03:53:00.501Z,4.23
2022-10-17T03:55:50.913Z,4.18
2022-10-17T03:58:42.476Z,4.28
2022-10-17T04:01:34.465Z,4.18
2022-10-17T04:04:24.885Z,4.05
2022-10-17T04:07:14.914Z,4.38
2022-10-17T04:10:08.944Z,4.90
2022-10-17T04:12:58.898Z,4.45
2022-10-17T04:16:07.641Z,4.20
2022-10-17T04:19:03.127Z,4.45
2022-10-17T04:21:59.284Z,3.83
2022-10-17T04:24:51.113Z,3.88
2022-10-17T04:27:50.630Z,3.80
2022-10-17T04:30:42.362Z,3.63
2022-10-17T04:33:35.868Z,3.70
2022-10-17T04:36:25.785Z,3.90
2022-10-17T04:39:16.305Z,3.60
2022-10-17T04:42:06.881Z,3.92
2022-10-17T04:44:57.587Z,3.20
2022-10-17T04:47:49.541Z,3.60
2022-10-17T04:50:39.419Z,3.30
2022-10-17T04:53:45.702Z,3.30
2022-10-17T04:56:36.068Z,3.28
2022-10-17T04:59:26.562Z,3.75
2022-10-17T05:02:28.792Z,3.60
2022-10-17T05:05:19.362Z,3.60
2022-10-17T05:08:13.250Z,3.80
2022-10-17T05:11:05.637Z,4.00
2022-10-17T05:14:01.466Z,3.60
2022-10-17T05:16:52.896Z,3.97
2022-10-17T05:19:43.835Z,3.70
2022-10-17T05:22:38.235Z,4.82
2022-10-17T05:25:31.497Z,4.13
2022-10-17T05:28:21.792Z,4.10
2022-10-17T05:31:12.736Z,8.75
2022-10-17T05:34:03.295Z,5.15
2022-10-17T05:36:55.857Z,5.17
2022-10-17T05:39:51.370Z,5.25
2022-10-17T05:42:48.989Z,4.20
2022-10-17T05:45:41.349Z,4.22
2022-10-17T05:48:37.027Z,4.30
2022-10-17T05:51:28.033Z,4.22
2022-10-17T05:54:20.087Z,4.65
2022-10-17T05:57:10.727Z,4.20
2022-10-17T06:00:02.403Z,4.38
2022-10-17T06:03:04.094Z,4.72
2022-10-17T06:05:54.663Z,4.32
2022-10-17T06:08:44.969Z,4.43
2022-10-17T06:11:39.052Z,4.28
2022-10-17T06:14:29.997Z,4.63
2022-10-17T06:17:25.186Z,4.32
2022-10-17T06:20:15.587Z,3.75
2022-10-17T06:23:06.737Z,4.25
2022-10-17T06:26:10.410Z,3.88
2022-10-17T06:29:00.892Z,3.80
2022-10-17T06:31:55.614Z,3.50
2022-10-17T06:34:45.837Z,3.55
2022-10-17T06:37:37.096Z,3.17
2022-10-17T06:40:31.270Z,4.05
2022-10-17T06:43:27.730Z,4.00
2022-10-17T06:46:53.709Z,3.45
2022-10-17T06:49:44.894Z,3.78
2022-10-17T06:52:58.668Z,4.15
2022-10-17T06:56:09.361Z,3.90
2022-10-17T06:59:22.577Z,4.00
2022-10-17T07:02:18.588Z,3.40
2022-10-17T07:05:08.894Z,3.53
2022-10-17T07:07:59.145Z,3.42
2022-10-17T07:10:50.313Z,3.70
2022-10-17T07:13:40.550Z,2.95
2022-10-17T07:16:30.375Z,3.25
2022-10-17T07:19:29.768Z,3.08
2022-10-17T07:22:19.905Z,3.63
2022-10-17T07:25:12.397Z,3.63
2022-10-17T07:28:11.657Z,2.78
2022-10-17T07:31:07.708Z,3.78
2022-10-17T07:34:00.202Z,2.47
2022-10-17T07:36:52.969Z,2.53
2022-10-17T07:39:42.900Z,2.58
2022-10-17T07:42:36.050Z,2.60
2022-10-17T07:45:27.653Z,2.63
2022-10-17T07:48:19.663Z,2.35
2022-10-17T07:51:10.509Z,2.38
2022-10-17T07:54:00.482Z,2.60
2022-10-17T07:56:50.941Z,2.38
2022-10-17T07:59:40.922Z,2.28
2022-10-17T08:02:31.117Z,2.72
2022-10-17T08:05:21.161Z,2.92
2022-10-17T08:08:11.087Z,2.38
2022-10-17T08:11:07.294Z,3.10
2022-10-17T08:13:57.468Z,3.15
2022-10-17T08:16:47.439Z,3.00
2022-10-17T08:19:40.858Z,3.22
2022-10-17T08:22:31.865Z,2.80
2022-10-17T08:25:22.759Z,3.50
2022-10-17T08:28:13.188Z,3.55
2022-10-17T08:31:06.047Z,3.40
2022-10-17T08:33:56.074Z,2.60
2022-10-17T08:36:45.970Z,3.33
2022-10-17T08:39:35.904Z,2.88
2022-10-17T08:42:44.341Z,3.50
2022-10-17T08:46:00.217Z,3.40
2022-10-17T08:48:52.329Z,2.83
2022-10-17T08:51:52.064Z,2.90
2022-10-17T08:54:48.633Z,3.72
2022-10-17T08:57:38.676Z,2.92
2022-10-17T09:00:30.722Z,2.70
2022-10-17T09:03:32.380Z,3.60
2022-10-17T09:06:30.127Z,2.80
2022-10-17T09:09:45.256Z,2.75
2022-10-17T09:12:58.497Z,2.47
2022-10-17T09:16:03.707Z,2.33
2022-10-17T09:19:23.232Z,2.53
2022-10-17T09:22:20.036Z,2.33
2022-10-17T09:25:15.486Z,2.00
2022-10-17T09:28:25.780Z,2.30
2022-10-17T09:31:26.744Z,1.90
2022-10-17T09:34:17.299Z,1.98
2022-10-17T09:37:13.461Z,2.10
2022-10-17T09:40:08.670Z,2.50
2022-10-17T09:43:01.469Z,2.25
2022-10-17T09:46:09.304Z,2.40
2022-10-17T09:49:05.009Z,2.17
2022-10-17T09:51:55.162Z,1.92
2022-10-17T09:54:54.107Z,2.10
2022-10-17T09:57:59.635Z,1.80
2022-10-17T10:00:49.841Z,2.05
2022-10-17T10:03:40.188Z,1.60
2022-10-17T10:06:29.978Z,1.75
2022-10-17T10:09:26.744Z,2.03
2022-10-17T10:12:32.525Z,1.73
2022-10-17T10:15:37.803Z,2.10
2022-10-17T10:18:34.759Z,2.58
2022-10-17T10:21:27.367Z,2.53
2022-10-17T10:24:18.592Z,2.60
2022-10-17T10:27:15.336Z,2.30
2022-10-17T10:30:06.572Z,2.30
2022-10-17T10:33:00.300Z,2.70
2022-10-17T10:36:03.392Z,3.80
2022-10-17T10:38:58.331Z,3.28
2022-10-17T10:41:49.507Z,2.38
2022-10-17T10:44:42.430Z,2.08
2022-10-17T10:47:33.368Z,2.37
2022-10-17T10:50:38.847Z,2.28
2022-10-17T10:53:35.127Z,2.70
2022-10-17T10:56:40.613Z,2.03
2022-10-17T10:59:41.232Z,2.03
2022-10-17T11:02:41.732Z,2.08
2022-10-17T11:05:50.655Z,2.30
2022-10-17T11:08:52.394Z,1.90
2022-10-17T11:11:48.415Z,2.30
2022-10-17T11:14:45.055Z,1.98
2022-10-17T11:17:40.348Z,1.90
2022-10-17T11:20:33.898Z,2.03
2022-10-17T11:26:28.863Z,2.05
2022-10-17T11:29:19.442Z,1.92
2022-10-17T11:32:16.755Z,2.13
2022-10-17T11:35:40.998Z,1.90
2022-10-17T11:38:47.994Z,1.73
2022-10-17T11:41:47.270Z,2.22
2022-10-17T11:44:40.321Z,2.50
2022-10-17T11:47:43.730Z,2.30
2022-10-17T11:54:04.790Z,1.90
2022-10-17T11:57:29.805Z,2.00
2022-10-17T12:00:40.723Z,2.30
2022-10-17T12:03:51.938Z,2.13
2022-10-17T12:06:48.397Z,2.10
2022-10-17T12:09:57.127Z,2.00
2022-10-17T12:12:49.397Z,2.20
2022-10-17T12:15:42.589Z,1.80
2022-10-17T12:18:34.998Z,1.85
2022-10-17T12:21:28.463Z,2.10
2022-10-17T12:24:52.673Z,2.42
2022-10-17T12:27:48.318Z,1.95
2022-10-17T12:30:51.507Z,2.00
2022-10-17T12:33:53.684Z,1.83
2022-10-17T12:36:43.489Z,2.17
2022-10-17T12:39:41.586Z,1.95
2022-10-17T12:42:33.296Z,1.70
2022-10-17T12:45:48.719Z,1.90
2022-10-17T12:48:38.538Z,1.80
2022-10-17T12:51:37.938Z,1.85
2022-10-17T12:54:31.408Z,2.10
2022-10-17T12:57:37.696Z,1.50
2022-10-17T13:00:34.054Z,1.70
2022-10-17T13:03:28.255Z,1.75
2022-10-17T13:06:30.967Z,1.77
2022-10-17T13:09:27.898Z,1.92
2022-10-17T13:12:26.984Z,1.80
2022-10-17T13:15:19.746Z,1.90
2022-10-17T13:18:18.727Z,2.10
2022-10-17T13:21:16.212Z,1.75
2022-10-17T13:24:29.433Z,1.90
2022-10-17T13:27:34.552Z,1.60
2022-10-17T13:30:31.038Z,1.85
2022-10-17T13:33:48.741Z,1.77
2022-10-17T13:36:38.947Z,1.70
2022-10-17T13:39:55.991Z,1.35
2022-10-17T13:42:49.838Z,1.70
2022-10-17T13:45:40.282Z,1.73
2022-10-17T13:48:33.279Z,1.60
2022-10-17T13:51:24.127Z,1.70
2022-10-17T13:54:29.654Z,1.73
2022-10-17T13:57:24.834Z,1.70
2022-10-17T14:00:24.045Z,1.65
2022-10-17T14:03:14.161Z,1.98
2022-10-17T14:06:15.956Z,1.80
2022-10-17T14:09:21.737Z,1.95
2022-10-17T14:12:13.004Z,1.80
2022-10-17T14:15:11.896Z,1.80
2022-10-17T14:18:07.753Z,2.03
2022-10-17T14:24:23.109Z,1.70
2022-10-17T14:27:32.157Z,1.77
2022-10-17T14:30:51.549Z,1.75
2022-10-17T14:33:38.549Z,2.55
2022-10-17T14:36:44.210Z,1.77
2022-10-17T14:39:34.209Z,1.90
2022-10-17T14:42:24.530Z,1.80
2022-10-17T14:45:25.219Z,1.70
2022-10-17T14:48:20.042Z,1.70
2022-10-17T14:51:15.850Z,1.60
2022-10-17T14:54:22.097Z,2.15
2022-10-17T14:57:22.948Z,1.70
2022-10-17T15:00:17.872Z,1.65
2022-10-17T15:03:07.843Z,2.00
2022-10-17T15:05:58.386Z,1.33
2022-10-17T15:08:48.382Z,2.30
2022-10-17T15:11:38.896Z,2.25
2022-10-17T15:14:29.041Z,1.63
2022-10-17T15:17:24.176Z,1.60
2022-10-17T15:20:17.565Z,2.00
2022-10-17T15:23:08.898Z,1.73
2022-10-17T15:25:58.594Z,2.03
2022-10-17T15:28:49.687Z,1.50
2022-10-17T15:31:40.702Z,1.92
2022-10-17T15:34:30.553Z,2.10
2022-10-17T15:37:23.229Z,1.80
2022-10-17T15:40:22.134Z,1.90
2022-10-17T15:43:13.406Z,1.77
2022-10-17T15:46:12.082Z,1.90
2022-10-17T15:49:05.695Z,1.98
2022-10-17T15:51:55.569Z,1.92
2022-10-17T15:54:45.752Z,1.88
2022-10-17T15:57:43.070Z,2.13
2022-10-17T16:00:33.046Z,1.80
2022-10-17T16:03:23.425Z,1.70
2022-10-17T16:06:14.227Z,2.50
2022-10-17T16:09:04.565Z,2.25
2022-10-17T16:11:54.851Z,2.05
2022-10-17T16:14:45.370Z,2.15
2022-10-17T16:17:35.363Z,2.70
2022-10-17T16:20:25.668Z,2.90
2022-10-17T16:23:15.812Z,2.60
2022-10-17T16:26:07.108Z,2.45
2022-10-17T16:28:58.221Z,2.95
2022-10-17T16:31:48.473Z,2.85
2022-10-17T16:34:38.824Z,5.05
2022-10-17T16:37:29.023Z,9.05
2022-10-17T16:40:19.474Z,3.70
2022-10-17T16:43:13.091Z,2.97
2022-10-17T16:46:06.212Z,3.08
2022-10-17T16:48:56.882Z,3.05
2022-10-17T16:51:47.059Z,3.10
2022-10-17T16:54:37.158Z,3.05
2022-10-17T16:57:27.104Z,2.90
2022-10-17T17:00:18.008Z,3.00
2022-10-17T17:03:07.843Z,3.33
2022-10-17T17:05:57.760Z,3.33
2022-10-17T17:08:47.799Z,3.10
2022-10-17T17:11:38.718Z,3.33
2022-10-17T17:14:28.852Z,3.45
2022-10-17T17:17:30.361Z,2.97
2022-10-17T17:20:29.794Z,2.80
2022-10-17T17:23:19.934Z,2.75
2022-10-17T17:26:11.643Z,3.42
2022-10-17T17:29:02.306Z,3.20
2022-10-17T17:31:52.457Z,2.72
2022-10-17T17:34:42.428Z,2.85
2022-10-17T17:37:32.632Z,3.10
2022-10-17T17:40:22.978Z,3.47
2022-10-17T17:43:13.269Z,3.15
2022-10-17T17:46:03.170Z,2.88
2022-10-17T17:48:54.865Z,2.60
2022-10-17T17:51:46.567Z,3.08
2022-10-17T17:54:40.069Z,2.95
2022-10-17T17:57:31.064Z,3.33
2022-10-17T18:00:21.223Z,3.20
2022-10-17T18:03:11.342Z,3.88
2022-10-17T18:06:01.423Z,3.47
2022-10-17T18:08:54.767Z,3.05
2022-10-17T18:11:45.050Z,3.13
2022-10-17T18:14:35.298Z,3.60
2022-10-17T18:17:25.675Z,3.78
2022-10-17T18:20:15.894Z,4.55
2022-10-17T18:23:06.114Z,4.07
2022-10-17T18:25:57.727Z,4.40
2022-10-17T18:28:49.434Z,4.35
2022-10-17T18:31:39.380Z,3.92
2022-10-17T18:34:29.405Z,4.00
2022-10-17T18:37:19.781Z,3.70
2022-10-17T18:40:10.236Z,4.13
2022-10-17T18:43:00.861Z,6.10
2022-10-17T18:45:50.775Z,5.25
2022-10-17T18:48:42.729Z,5.22
2022-10-17T18:51:33.091Z,4.30
2022-10-17T18:54:24.328Z,5.57
2022-10-17T18:57:14.345Z,5.93
2022-10-17T19:00:05.744Z,5.03
2022-10-17T19:02:55.999Z,4.60
2022-10-17T19:05:46.217Z,4.97
2022-10-17T19:08:37.746Z,5.22
2022-10-17T19:11:29.859Z,5.10
2022-10-17T19:14:19.855Z,4.72
2022-10-17T19:17:09.836Z,4.82
2022-10-17T19:19:59.743Z,4.50
2022-10-17T19:22:49.734Z,5.18
2022-10-17T19:25:42.913Z,4.90
2022-10-17T19:28:34.177Z,4.95
2022-10-17T19:31:27.283Z,5.15
2022-10-17T19:34:18.478Z,5.07
2022-10-17T19:37:08.350Z,5.00
2022-10-17T19:39:58.332Z,4.70
2022-10-17T19:42:48.279Z,5.28
2022-10-17T19:45:38.038Z,5.10
2022-10-17T19:48:32.355Z,4.63
2022-10-17T19:51:24.447Z,5.90
2022-10-17T19:54:18.079Z,5.65
2022-10-17T19:57:10.392Z,6.07
2022-10-17T20:00:00.764Z,5.25
2022-10-17T20:02:50.728Z,5.15
2022-10-17T20:05:40.537Z,5.75
2022-10-17T20:08:30.835Z,5.00
2022-10-17T20:11:24.158Z,5.65
2022-10-17T20:14:13.999Z,6.20
2022-10-17T20:17:03.834Z,5.93
2022-10-17T20:19:53.896Z,7.13
2022-10-17T20:22:44.037Z,7.03
2022-10-17T20:25:34.496Z,6.70
2022-10-17T20:28:24.643Z,6.53
2022-10-17T20:31:15.646Z,6.20
2022-10-17T20:34:06.006Z,7.70
2022-10-17T20:36:55.825Z,8.02
2022-10-17T20:39:45.879Z,9.40
2022-10-17T20:42:35.973Z,8.60
2022-10-17T20:45:37.593Z,8.95
2022-10-17T20:48:37.354Z,8.38
2022-10-17T20:51:27.576Z,8.27
2022-10-17T20:54:17.395Z,9.32
2022-10-17T20:57:07.463Z,7.97
2022-10-17T20:59:57.670Z,8.23
2022-10-17T21:02:47.703Z,8.40
2022-10-17T21:05:39.793Z,7.63
2022-10-17T21:08:30.421Z,7.45
2022-10-17T21:11:22.940Z,7.03
2022-10-17T21:14:13.187Z,7.32
2022-10-17T21:17:05.291Z,8.48
2022-10-17T21:19:55.887Z,6.55
2022-10-17T21:22:46.293Z,6.80
2022-10-17T21:25:36.306Z,6.50
2022-10-17T21:28:26.303Z,7.00
2022-10-17T21:31:25.326Z,7.30
2022-10-17T21:34:21.163Z,6.43
2022-10-17T21:37:11.157Z,6.50
2022-10-17T21:40:01.609Z,6.50
2022-10-17T21:42:51.688Z,6.22
2022-10-17T21:45:41.485Z,5.88
2022-10-17T21:48:32.648Z,6.25
2022-10-17T21:51:24.651Z,6.30
2022-10-17T21:54:15.626Z,5.90
2022-10-17T21:57:05.540Z,6.22
2022-10-17T21:59:55.988Z,6.20
2022-10-17T22:02:46.112Z,5.75
2022-10-17T22:05:36.092Z,5.65
2022-10-17T22:08:26.174Z,5.55
2022-10-17T22:11:25.932Z,7.03
2022-10-17T22:14:18.277Z,6.15
2022-10-17T22:17:08.644Z,6.75
2022-10-17T22:19:58.656Z,7.38
2022-10-17T22:22:48.450Z,7.45
2022-10-17T22:25:38.440Z,6.93
2022-10-17T22:28:28.717Z,7.40
2022-10-17T22:31:19.017Z,7.35
2022-10-17T22:34:12.615Z,6.72
2022-10-17T22:37:02.619Z,7.22
2022-10-17T22:39:52.506Z,6.75
2022-10-17T22:42:42.337Z,7.35
2022-10-17T22:45:32.145Z,6.75
2022-10-17T22:48:23.822Z,7.00
2022-10-17T22:51:14.187Z,7.00
2022-10-17T22:54:04.644Z,7.25
2022-10-17T22:56:54.697Z,7.80
2022-10-17T22:59:44.849Z,7.25
2022-10-17T23:02:35.206Z,7.15
2022-10-17T23:05:25.434Z,6.43
2022-10-17T23:08:17.757Z,6.97
2022-10-17T23:11:09.003Z,6.72
2022-10-17T23:13:59.022Z,5.97
2022-10-17T23:16:48.970Z,6.78
2022-10-17T23:19:39.752Z,5.47
2022-10-17T23:22:29.871Z,6.05
2022-10-17T23:25:20.312Z,6.50
2022-10-17T23:28:11.244Z,6.10
2022-10-17T23:31:20.088Z,5.95
2022-10-17T23:34:10.330Z,5.90
2022-10-17T23:37:00.513Z,5.45
2022-10-17T23:39:50.693Z,5.88
2022-10-17T23:42:40.747Z,6.45
2022-10-17T23:45:34.753Z,6.18
2022-10-17T23:48:27.661Z,5.95
2022-10-17T23:51:17.886Z,5.38
2022-10-17T23:54:08.192Z,5.72
2022-10-17T23:56:58.624Z,5.20
2022-10-17T23:59:48.791Z,5.40
